sensor_id;sensor_type;location;lat;lon;timestamp;P1;durP1;ratioP1;P2;durP2;ratioP2
44925;SDS011;30662;51.210;7.656;2024-01-15T00:02:12;24.27;;;16.15;;
44925;SDS011;30662;51.210;7.656;2024-01-15T00:04:39;23.73;;;16.23;;
44925;SDS011;30662;51.210;7.656;2024-01-15T00:07:06;25.20;;;16.83;;
44925;SDS011;30662;51.210;7.656;2024-01-15T00:09:33;26.25;;;16.38;;
44925;SDS011;30662;51.210;7.656;2024-01-15T00:12:00;23.05;;;16.75;;
44925;SDS011;30662;51.210;7.656;2024-01-15T00:14:28;28.73;;;16.42;;
44925;SDS011;30662;51.210;7.656;2024-01-15T00:16:54;23.25;;;16.35;;
44925;SDS011;30662;51.210;7.656;2024-01-15T00:19:23;25.85;;;16.77;;
44925;SDS011;30662;51.210;7.656;2024-01-15T00:21:50;26.33;;;17.30;;
44925;SDS011;30662;51.210;7.656;2024-01-15T00:24:17;27.30;;;17.73;;
44925;SDS011;30662;51.210;7.656;2024-01-15T00:26:44;28.92;;;17.25;;
44925;SDS011;30662;51.210;7.656;2024-01-15T00:29:10;26.05;;;18.02;;
44925;SDS011;30662;51.210;7.656;2024-01-15T00:31:37;30.85;;;18.38;;
44925;SDS011;30662;51.210;7.656;2024-01-15T00:34:04;26.95;;;17.45;;
44925;SDS011;30662;51.210;7.656;2024-01-15T00:36:32;28.10;;;17.90;;
44925;SDS011;30662;51.210;7.656;2024-01-15T00:38:59;27.58;;;17.58;;
44925;SDS011;30662;51.210;7.656;2024-01-15T00:41:26;28.52;;;18.38;;
44925;SDS011;30662;51.210;7.656;2024-01-15T00:43:52;26.45;;;16.88;;
44925;SDS011;30662;51.210;7.656;2024-01-15T00:46:19;32.22;;;18.90;;
44925;SDS011;30662;51.210;7.656;2024-01-15T00:48:46;25.40;;;17.52;;
44925;SDS011;30662;51.210;7.656;2024-01-15T00:51:13;25.35;;;16.38;;
44925;SDS011;30662;51.210;7.656;2024-01-15T00:53:41;28.50;;;17.40;;
44925;SDS011;30662;51.210;7.656;2024-01-15T00:56:08;29.88;;;17.25;;
44925;SDS011;30662;51.210;7.656;2024-01-15T00:58:35;28.08;;;17.15;;
44925;SDS011;30662;51.210;7.656;2024-01-15T01:01:02;27.45;;;16.90;;
44925;SDS011;30662;51.210;7.656;2024-01-15T01:03:29;21.27;;;15.60;;
44925;SDS011;30662;51.210;7.656;2024-01-15T01:05:56;25.95;;;16.23;;
44925;SDS011;30662;51.210;7.656;2024-01-15T01:08:23;29.05;;;16.92;;
44925;SDS011;30662;51.210;7.656;2024-01-15T01:10:51;25.73;;;16.15;;
44925;SDS011;30662;51.210;7.656;2024-01-15T01:13:18;23.50;;;15.55;;
44925;SDS011;30662;51.210;7.656;2024-01-15T01:15:45;24.50;;;16.13;;
44925;SDS011;30662;51.210;7.656;2024-01-15T01:18:12;24.33;;;15.63;;
44925;SDS011;30662;51.210;7.656;2024-01-15T01:20:39;22.00;;;15.25;;
44925;SDS011;30662;51.210;7.656;2024-01-15T01:23:06;21.80;;;14.88;;
44925;SDS011;30662;51.210;7.656;2024-01-15T01:25:33;20.85;;;14.60;;
44925;SDS011;30662;51.210;7.656;2024-01-15T01:28:01;24.23;;;16.13;;
44925;SDS011;30662;51.210;7.656;2024-01-15T01:30:28;23.52;;;16.42;;
44925;SDS011;30662;51.210;7.656;2024-01-15T01:32:55;26.23;;;15.43;;
44925;SDS011;30662;51.210;7.656;2024-01-15T01:35:22;26.90;;;16.38;;
44925;SDS011;30662;51.210;7.656;2024-01-15T01:37:48;28.23;;;15.93;;
44925;SDS011;30662;51.210;7.656;2024-01-15T01:40:15;32.08;;;17.48;;
44925;SDS011;30662;51.210;7.656;2024-01-15T01:42:42;26.40;;;17.95;;
44925;SDS011;30662;51.210;7.656;2024-01-15T01:45:10;23.67;;;16.48;;
44925;SDS011;30662;51.210;7.656;2024-01-15T01:47:37;30.88;;;18.67;;
44925;SDS011;30662;51.210;7.656;2024-01-15T01:50:05;27.75;;;17.48;;
44925;SDS011;30662;51.210;7.656;2024-01-15T01:52:32;29.75;;;17.58;;
44925;SDS011;30662;51.210;7.656;2024-01-15T01:55:00;30.42;;;18.90;;
44925;SDS011;30662;51.210;7.656;2024-01-15T01:57:29;29.92;;;17.13;;
44925;SDS011;30662;51.210;7.656;2024-01-15T01:59:57;33.20;;;18.02;;
44925;SDS011;30662;51.210;7.656;2024-01-15T02:02:26;27.35;;;16.40;;
44925;SDS011;30662;51.210;7.656;2024-01-15T02:04:53;28.75;;;18.30;;
44925;SDS011;30662;51.210;7.656;2024-01-15T02:07:20;31.13;;;18.15;;
44925;SDS011;30662;51.210;7.656;2024-01-15T02:09:47;39.30;;;18.10;;
44925;SDS011;30662;51.210;7.656;2024-01-15T02:12:14;33.60;;;18.77;;
44925;SDS011;30662;51.210;7.656;2024-01-15T02:14:41;49.50;;;19.63;;
44925;SDS011;30662;51.210;7.656;2024-01-15T02:17:07;33.70;;;19.23;;
44925;SDS011;30662;51.210;7.656;2024-01-15T02:19:35;33.63;;;19.40;;
44925;SDS011;30662;51.210;7.656;2024-01-15T02:22:02;43.97;;;21.05;;
44925;SDS011;30662;51.210;7.656;2024-01-15T02:24:31;38.95;;;20.33;;
44925;SDS011;30662;51.210;7.656;2024-01-15T02:26:58;33.90;;;20.30;;
44925;SDS011;30662;51.210;7.656;2024-01-15T02:29:24;41.17;;;21.90;;
44925;SDS011;30662;51.210;7.656;2024-01-15T02:31:51;33.65;;;19.85;;
44925;SDS011;30662;51.210;7.656;2024-01-15T02:34:18;50.97;;;20.38;;
44925;SDS011;30662;51.210;7.656;2024-01-15T02:36:44;40.97;;;19.00;;
44925;SDS011;30662;51.210;7.656;2024-01-15T02:39:11;35.05;;;20.23;;
44925;SDS011;30662;51.210;7.656;2024-01-15T02:41:40;38.90;;;20.98;;
44925;SDS011;30662;51.210;7.656;2024-01-15T02:44:06;38.85;;;21.50;;
44925;SDS011;30662;51.210;7.656;2024-01-15T02:46:33;41.58;;;21.13;;
44925;SDS011;30662;51.210;7.656;2024-01-15T02:49:00;33.25;;;19.95;;
44925;SDS011;30662;51.210;7.656;2024-01-15T02:51:27;35.63;;;20.38;;
44925;SDS011;30662;51.210;7.656;2024-01-15T02:53:53;51.05;;;19.88;;
44925;SDS011;30662;51.210;7.656;2024-01-15T02:56:20;92.80;;;21.67;;
44925;SDS011;30662;51.210;7.656;2024-01-15T02:58:48;91.43;;;20.95;;
44925;SDS011;30662;51.210;7.656;2024-01-15T03:01:15;97.25;;;21.15;;
44925;SDS011;30662;51.210;7.656;2024-01-15T03:03:44;51.15;;;21.25;;
44925;SDS011;30662;51.210;7.656;2024-01-15T03:06:11;60.42;;;19.95;;
44925;SDS011;30662;51.210;7.656;2024-01-15T03:08:38;68.05;;;22.02;;
44925;SDS011;30662;51.210;7.656;2024-01-15T03:11:05;44.05;;;21.63;;
44925;SDS011;30662;51.210;7.656;2024-01-15T03:13:31;95.88;;;22.48;;
44925;SDS011;30662;51.210;7.656;2024-01-15T03:16:03;49.35;;;21.20;;
44925;SDS011;30662;51.210;7.656;2024-01-15T03:18:30;39.47;;;21.35;;
44925;SDS011;30662;51.210;7.656;2024-01-15T03:20:58;48.55;;;21.45;;
44925;SDS011;30662;51.210;7.656;2024-01-15T03:23:24;38.17;;;20.83;;
44925;SDS011;30662;51.210;7.656;2024-01-15T03:25:51;44.65;;;20.17;;
44925;SDS011;30662;51.210;7.656;2024-01-15T03:28:18;75.07;;;22.23;;
44925;SDS011;30662;51.210;7.656;2024-01-15T03:30:44;32.72;;;19.88;;
44925;SDS011;30662;51.210;7.656;2024-01-15T03:33:12;39.55;;;20.88;;
44925;SDS011;30662;51.210;7.656;2024-01-15T03:35:39;36.47;;;19.85;;
44925;SDS011;30662;51.210;7.656;2024-01-15T03:38:06;38.50;;;21.80;;
44925;SDS011;30662;51.210;7.656;2024-01-15T03:40:32;42.33;;;22.60;;
44925;SDS011;30662;51.210;7.656;2024-01-15T03:42:59;34.83;;;20.00;;
44925;SDS011;30662;51.210;7.656;2024-01-15T03:45:26;35.70;;;19.67;;
44925;SDS011;30662;51.210;7.656;2024-01-15T03:47:53;39.72;;;18.80;;
44925;SDS011;30662;51.210;7.656;2024-01-15T03:50:21;34.45;;;18.55;;
44925;SDS011;30662;51.210;7.656;2024-01-15T03:52:48;37.03;;;18.85;;
44925;SDS011;30662;51.210;7.656;2024-01-15T03:55:15;31.90;;;19.00;;
44925;SDS011;30662;51.210;7.656;2024-01-15T03:57:41;31.17;;;19.33;;
44925;SDS011;30662;51.210;7.656;2024-01-15T04:00:08;30.65;;;18.00;;
44925;SDS011;30662;51.210;7.656;2024-01-15T04:02:36;30.38;;;18.40;;
44925;SDS011;30662;51.210;7.656;2024-01-15T04:05:03;36.05;;;17.98;;
44925;SDS011;30662;51.210;7.656;2024-01-15T04:07:31;36.60;;;18.95;;
44925;SDS011;30662;51.210;7.656;2024-01-15T04:10:00;35.08;;;18.42;;
44925;SDS011;30662;51.210;7.656;2024-01-15T04:12:27;35.58;;;18.60;;
44925;SDS011;30662;51.210;7.656;2024-01-15T04:14:54;33.42;;;17.88;;
44925;SDS011;30662;51.210;7.656;2024-01-15T04:17:21;32.63;;;18.15;;
44925;SDS011;30662;51.210;7.656;2024-01-15T04:19:48;31.85;;;18.33;;
44925;SDS011;30662;51.210;7.656;2024-01-15T04:22:14;37.25;;;19.25;;
44925;SDS011;30662;51.210;7.656;2024-01-15T04:24:42;34.55;;;19.40;;
44925;SDS011;30662;51.210;7.656;2024-01-15T04:27:09;37.45;;;18.20;;
44925;SDS011;30662;51.210;7.656;2024-01-15T04:29:37;35.10;;;19.35;;
44925;SDS011;30662;51.210;7.656;2024-01-15T04:32:06;35.40;;;18.60;;
44925;SDS011;30662;51.210;7.656;2024-01-15T04:34:33;37.83;;;18.20;;
44925;SDS011;30662;51.210;7.656;2024-01-15T04:37:00;37.10;;;17.77;;
44925;SDS011;30662;51.210;7.656;2024-01-15T04:39:27;31.73;;;17.67;;
44925;SDS011;30662;51.210;7.656;2024-01-15T04:41:55;31.95;;;17.92;;
44925;SDS011;30662;51.210;7.656;2024-01-15T04:44:22;33.15;;;18.45;;
44925;SDS011;30662;51.210;7.656;2024-01-15T04:46:48;30.42;;;16.88;;
44925;SDS011;30662;51.210;7.656;2024-01-15T04:49:15;38.22;;;18.65;;
44925;SDS011;30662;51.210;7.656;2024-01-15T04:51:42;29.85;;;17.63;;
44925;SDS011;30662;51.210;7.656;2024-01-15T04:54:09;35.30;;;18.42;;
44925;SDS011;30662;51.210;7.656;2024-01-15T04:56:35;30.85;;;17.73;;
44925;SDS011;30662;51.210;7.656;2024-01-15T04:59:04;31.23;;;17.90;;
44925;SDS011;30662;51.210;7.656;2024-01-15T05:01:31;35.78;;;17.05;;
44925;SDS011;30662;51.210;7.656;2024-01-15T05:03:58;30.77;;;15.60;;
44925;SDS011;30662;51.210;7.656;2024-01-15T05:06:26;28.98;;;16.70;;
44925;SDS011;30662;51.210;7.656;2024-01-15T05:08:53;27.13;;;15.68;;
44925;SDS011;30662;51.210;7.656;2024-01-15T05:11:19;31.92;;;17.58;;
44925;SDS011;30662;51.210;7.656;2024-01-15T05:13:46;24.65;;;16.15;;
44925;SDS011;30662;51.210;7.656;2024-01-15T05:16:14;30.48;;;16.08;;
44925;SDS011;30662;51.210;7.656;2024-01-15T05:18:41;23.58;;;14.98;;
44925;SDS011;30662;51.210;7.656;2024-01-15T05:21:08;27.25;;;16.23;;
44925;SDS011;30662;51.210;7.656;2024-01-15T05:23:35;25.23;;;15.38;;
44925;SDS011;30662;51.210;7.656;2024-01-15T05:26:02;27.95;;;14.88;;
44925;SDS011;30662;51.210;7.656;2024-01-15T05:28:28;25.23;;;16.60;;
44925;SDS011;30662;51.210;7.656;2024-01-15T05:30:55;29.00;;;15.82;;
44925;SDS011;30662;51.210;7.656;2024-01-15T05:33:23;26.33;;;15.88;;
44925;SDS011;30662;51.210;7.656;2024-01-15T05:35:50;27.52;;;15.52;;
44925;SDS011;30662;51.210;7.656;2024-01-15T05:38:17;27.33;;;15.73;;
44925;SDS011;30662;51.210;7.656;2024-01-15T05:40:44;31.38;;;17.80;;
44925;SDS011;30662;51.210;7.656;2024-01-15T05:43:10;42.70;;;17.73;;
44925;SDS011;30662;51.210;7.656;2024-01-15T05:45:38;32.17;;;18.70;;
44925;SDS011;30662;51.210;7.656;2024-01-15T05:48:05;35.58;;;17.48;;
44925;SDS011;30662;51.210;7.656;2024-01-15T05:50:33;33.58;;;17.80;;
44925;SDS011;30662;51.210;7.656;2024-01-15T05:53:00;45.08;;;18.25;;
44925;SDS011;30662;51.210;7.656;2024-01-15T05:55:27;63.45;;;19.80;;
44925;SDS011;30662;51.210;7.656;2024-01-15T05:57:53;42.78;;;20.17;;
44925;SDS011;30662;51.210;7.656;2024-01-15T06:00:20;37.72;;;18.85;;
44925;SDS011;30662;51.210;7.656;2024-01-15T06:02:47;37.90;;;19.77;;
44925;SDS011;30662;51.210;7.656;2024-01-15T06:05:14;47.85;;;19.48;;
44925;SDS011;30662;51.210;7.656;2024-01-15T06:07:42;94.07;;;20.45;;
44925;SDS011;30662;51.210;7.656;2024-01-15T06:10:09;41.40;;;18.60;;
44925;SDS011;30662;51.210;7.656;2024-01-15T06:12:36;54.10;;;19.08;;
44925;SDS011;30662;51.210;7.656;2024-01-15T06:15:03;30.83;;;18.90;;
44925;SDS011;30662;51.210;7.656;2024-01-15T06:17:30;23.90;;;16.08;;
44925;SDS011;30662;51.210;7.656;2024-01-15T06:20:00;33.78;;;17.63;;
44925;SDS011;30662;51.210;7.656;2024-01-15T06:22:27;105.03;;;19.60;;
44925;SDS011;30662;51.210;7.656;2024-01-15T06:24:55;36.90;;;15.95;;
44925;SDS011;30662;51.210;7.656;2024-01-15T06:27:22;83.05;;;17.70;;
44925;SDS011;30662;51.210;7.656;2024-01-15T06:29:49;27.02;;;15.93;;
44925;SDS011;30662;51.210;7.656;2024-01-15T06:32:16;32.00;;;16.00;;
44925;SDS011;30662;51.210;7.656;2024-01-15T06:34:43;41.25;;;17.55;;
44925;SDS011;30662;51.210;7.656;2024-01-15T06:37:10;40.53;;;18.42;;
44925;SDS011;30662;51.210;7.656;2024-01-15T06:39:37;48.97;;;20.65;;
44925;SDS011;30662;51.210;7.656;2024-01-15T06:42:05;49.80;;;19.08;;
44925;SDS011;30662;51.210;7.656;2024-01-15T06:44:32;33.75;;;16.92;;
44925;SDS011;30662;51.210;7.656;2024-01-15T06:46:58;41.40;;;17.13;;
44925;SDS011;30662;51.210;7.656;2024-01-15T06:49:25;49.22;;;16.63;;
44925;SDS011;30662;51.210;7.656;2024-01-15T06:51:52;27.00;;;16.20;;
44925;SDS011;30662;51.210;7.656;2024-01-15T06:54:19;24.55;;;14.57;;
44925;SDS011;30662;51.210;7.656;2024-01-15T06:56:45;20.13;;;13.10;;
44925;SDS011;30662;51.210;7.656;2024-01-15T06:59:13;25.27;;;13.15;;
44925;SDS011;30662;51.210;7.656;2024-01-15T07:01:44;20.98;;;13.20;;
44925;SDS011;30662;51.210;7.656;2024-01-15T07:04:11;21.83;;;14.18;;
44925;SDS011;30662;51.210;7.656;2024-01-15T07:06:37;25.75;;;14.50;;
44925;SDS011;30662;51.210;7.656;2024-01-15T07:09:04;21.88;;;12.10;;
44925;SDS011;30662;51.210;7.656;2024-01-15T07:11:31;17.77;;;12.88;;
44925;SDS011;30662;51.210;7.656;2024-01-15T07:13:58;14.90;;;11.80;;
44925;SDS011;30662;51.210;7.656;2024-01-15T07:16:26;14.98;;;10.38;;
44925;SDS011;30662;51.210;7.656;2024-01-15T07:19:03;19.05;;;11.85;;
44925;SDS011;30662;51.210;7.656;2024-01-15T07:21:30;26.15;;;13.48;;
44925;SDS011;30662;51.210;7.656;2024-01-15T07:23:57;22.77;;;13.43;;
44925;SDS011;30662;51.210;7.656;2024-01-15T07:26:24;26.35;;;13.07;;
44925;SDS011;30662;51.210;7.656;2024-01-15T07:28:50;20.75;;;13.43;;
44925;SDS011;30662;51.210;7.656;2024-01-15T07:31:17;35.95;;;15.13;;
44925;SDS011;30662;51.210;7.656;2024-01-15T07:33:46;22.20;;;13.20;;
44925;SDS011;30662;51.210;7.656;2024-01-15T07:36:13;20.70;;;13.82;;
44925;SDS011;30662;51.210;7.656;2024-01-15T07:38:39;16.33;;;12.80;;
44925;SDS011;30662;51.210;7.656;2024-01-15T07:41:06;19.13;;;13.32;;
44925;SDS011;30662;51.210;7.656;2024-01-15T07:43:33;18.75;;;12.07;;
44925;SDS011;30662;51.210;7.656;2024-01-15T07:45:59;18.10;;;12.93;;
44925;SDS011;30662;51.210;7.656;2024-01-15T07:48:27;23.05;;;13.02;;
44925;SDS011;30662;51.210;7.656;2024-01-15T07:50:55;18.02;;;11.00;;
44925;SDS011;30662;51.210;7.656;2024-01-15T07:53:22;18.23;;;11.32;;
44925;SDS011;30662;51.210;7.656;2024-01-15T07:55:49;17.60;;;9.88;;
44925;SDS011;30662;51.210;7.656;2024-01-15T07:58:15;15.30;;;11.32;;
44925;SDS011;30662;51.210;7.656;2024-01-15T08:00:42;14.18;;;10.20;;
44925;SDS011;30662;51.210;7.656;2024-01-15T08:03:10;15.02;;;9.90;;
44925;SDS011;30662;51.210;7.656;2024-01-15T08:05:37;13.25;;;10.13;;
44925;SDS011;30662;51.210;7.656;2024-01-15T08:08:06;17.13;;;10.13;;
44925;SDS011;30662;51.210;7.656;2024-01-15T08:10:33;13.88;;;10.20;;
44925;SDS011;30662;51.210;7.656;2024-01-15T08:12:59;15.40;;;11.68;;
44925;SDS011;30662;51.210;7.656;2024-01-15T08:15:26;11.25;;;8.75;;
44925;SDS011;30662;51.210;7.656;2024-01-15T08:17:57;12.48;;;8.07;;
44925;SDS011;30662;51.210;7.656;2024-01-15T08:20:24;8.88;;;7.95;;
44925;SDS011;30662;51.210;7.656;2024-01-15T08:22:51;12.80;;;8.20;;
44925;SDS011;30662;51.210;7.656;2024-01-15T08:25:19;10.98;;;7.22;;
44925;SDS011;30662;51.210;7.656;2024-01-15T08:27:46;10.50;;;7.18;;
44925;SDS011;30662;51.210;7.656;2024-01-15T08:30:13;8.23;;;6.40;;
44925;SDS011;30662;51.210;7.656;2024-01-15T08:32:40;8.30;;;6.55;;
44925;SDS011;30662;51.210;7.656;2024-01-15T08:35:07;8.40;;;7.22;;
44925;SDS011;30662;51.210;7.656;2024-01-15T08:37:34;8.15;;;6.68;;
44925;SDS011;30662;51.210;7.656;2024-01-15T08:40:01;6.07;;;5.47;;
44925;SDS011;30662;51.210;7.656;2024-01-15T08:42:29;8.05;;;6.63;;
44925;SDS011;30662;51.210;7.656;2024-01-15T08:44:58;7.88;;;6.28;;
44925;SDS011;30662;51.210;7.656;2024-01-15T08:47:25;8.60;;;7.13;;
44925;SDS011;30662;51.210;7.656;2024-01-15T08:49:52;9.00;;;6.72;;
44925;SDS011;30662;51.210;7.656;2024-01-15T08:52:19;11.55;;;6.68;;
44925;SDS011;30662;51.210;7.656;2024-01-15T08:54:45;10.88;;;8.05;;
44925;SDS011;30662;51.210;7.656;2024-01-15T08:57:12;11.52;;;7.88;;
44925;SDS011;30662;51.210;7.656;2024-01-15T08:59:40;11.93;;;9.23;;
44925;SDS011;30662;51.210;7.656;2024-01-15T09:02:07;12.02;;;8.35;;
44925;SDS011;30662;51.210;7.656;2024-01-15T09:04:34;11.38;;;8.82;;
44925;SDS011;30662;51.210;7.656;2024-01-15T09:07:01;9.50;;;8.50;;
44925;SDS011;30662;51.210;7.656;2024-01-15T09:09:28;11.73;;;8.18;;
44925;SDS011;30662;51.210;7.656;2024-01-15T09:11:55;9.60;;;8.55;;
44925;SDS011;30662;51.210;7.656;2024-01-15T09:14:21;9.35;;;8.27;;
44925;SDS011;30662;51.210;7.656;2024-01-15T09:17:03;10.98;;;8.43;;
44925;SDS011;30662;51.210;7.656;2024-01-15T09:19:30;9.88;;;7.35;;
44925;SDS011;30662;51.210;7.656;2024-01-15T09:21:58;9.73;;;8.07;;
44925;SDS011;30662;51.210;7.656;2024-01-15T09:24:24;11.10;;;8.73;;
44925;SDS011;30662;51.210;7.656;2024-01-15T09:26:54;10.60;;;8.82;;
44925;SDS011;30662;51.210;7.656;2024-01-15T09:29:21;11.25;;;9.07;;
44925;SDS011;30662;51.210;7.656;2024-01-15T09:31:47;10.35;;;8.10;;
44925;SDS011;30662;51.210;7.656;2024-01-15T09:34:16;12.07;;;8.32;;
44925;SDS011;30662;51.210;7.656;2024-01-15T09:36:42;9.23;;;8.13;;
44925;SDS011;30662;51.210;7.656;2024-01-15T09:39:09;12.77;;;8.88;;
44925;SDS011;30662;51.210;7.656;2024-01-15T09:41:36;10.25;;;8.65;;
44925;SDS011;30662;51.210;7.656;2024-01-15T09:44:03;11.70;;;8.32;;
44925;SDS011;30662;51.210;7.656;2024-01-15T09:46:30;9.43;;;7.82;;
44925;SDS011;30662;51.210;7.656;2024-01-15T09:48:58;10.32;;;8.30;;
44925;SDS011;30662;51.210;7.656;2024-01-15T09:51:26;10.40;;;8.13;;
44925;SDS011;30662;51.210;7.656;2024-01-15T09:53:57;13.90;;;9.88;;
44925;SDS011;30662;51.210;7.656;2024-01-15T09:56:24;11.65;;;8.50;;
44925;SDS011;30662;51.210;7.656;2024-01-15T09:58:51;10.80;;;8.50;;
44925;SDS011;30662;51.210;7.656;2024-01-15T10:01:19;12.38;;;9.98;;
44925;SDS011;30662;51.210;7.656;2024-01-15T10:03:47;9.02;;;7.10;;
44925;SDS011;30662;51.210;7.656;2024-01-15T10:06:14;8.45;;;6.93;;
44925;SDS011;30662;51.210;7.656;2024-01-15T10:08:47;7.68;;;6.88;;
44925;SDS011;30662;51.210;7.656;2024-01-15T10:11:15;9.05;;;7.07;;
44925;SDS011;30662;51.210;7.656;2024-01-15T10:13:42;8.57;;;7.25;;
44925;SDS011;30662;51.210;7.656;2024-01-15T10:16:11;8.48;;;6.95;;
44925;SDS011;30662;51.210;7.656;2024-01-15T10:18:38;7.30;;;6.35;;
44925;SDS011;30662;51.210;7.656;2024-01-15T10:21:06;10.07;;;7.53;;
44925;SDS011;30662;51.210;7.656;2024-01-15T10:23:33;7.90;;;6.07;;
44925;SDS011;30662;51.210;7.656;2024-01-15T10:26:01;6.22;;;5.47;;
44925;SDS011;30662;51.210;7.656;2024-01-15T10:28:29;5.78;;;5.25;;
44925;SDS011;30662;51.210;7.656;2024-01-15T10:30:57;6.43;;;5.20;;
44925;SDS011;30662;51.210;7.656;2024-01-15T10:33:25;6.18;;;4.80;;
44925;SDS011;30662;51.210;7.656;2024-01-15T10:35:53;5.15;;;4.68;;
44925;SDS011;30662;51.210;7.656;2024-01-15T10:38:20;4.70;;;4.30;;
44925;SDS011;30662;51.210;7.656;2024-01-15T10:40:47;5.15;;;4.45;;
44925;SDS011;30662;51.210;7.656;2024-01-15T10:43:16;5.18;;;4.20;;
44925;SDS011;30662;51.210;7.656;2024-01-15T10:45:45;3.92;;;3.63;;
44925;SDS011;30662;51.210;7.656;2024-01-15T10:48:13;4.97;;;3.95;;
44925;SDS011;30662;51.210;7.656;2024-01-15T10:50:41;5.05;;;4.55;;
44925;SDS011;30662;51.210;7.656;2024-01-15T10:53:08;4.45;;;4.05;;
44925;SDS011;30662;51.210;7.656;2024-01-15T10:55:35;4.32;;;3.92;;
44925;SDS011;30662;51.210;7.656;2024-01-15T10:58:04;4.47;;;4.07;;
44925;SDS011;30662;51.210;7.656;2024-01-15T11:00:32;4.93;;;4.40;;
44925;SDS011;30662;51.210;7.656;2024-01-15T11:03:00;5.18;;;4.68;;
44925;SDS011;30662;51.210;7.656;2024-01-15T11:05:28;4.22;;;3.83;;
44925;SDS011;30662;51.210;7.656;2024-01-15T11:07:55;5.63;;;4.93;;
44925;SDS011;30662;51.210;7.656;2024-01-15T11:10:40;5.38;;;4.88;;
44925;SDS011;30662;51.210;7.656;2024-01-15T11:13:09;8.20;;;6.65;;
44925;SDS011;30662;51.210;7.656;2024-01-15T11:18:26;4.90;;;4.45;;
44925;SDS011;30662;51.210;7.656;2024-01-15T11:23:52;5.13;;;4.63;;
44925;SDS011;30662;51.210;7.656;2024-01-15T11:26:27;7.00;;;4.72;;
44925;SDS011;30662;51.210;7.656;2024-01-15T11:28:59;5.60;;;4.88;;
44925;SDS011;30662;51.210;7.656;2024-01-15T11:31:29;4.53;;;4.07;;
44925;SDS011;30662;51.210;7.656;2024-01-15T11:34:16;6.03;;;4.90;;
44925;SDS011;30662;51.210;7.656;2024-01-15T11:37:01;5.80;;;4.45;;
44925;SDS011;30662;51.210;7.656;2024-01-15T11:39:40;15.17;;;5.10;;
44925;SDS011;30662;51.210;7.656;2024-01-15T11:42:09;5.85;;;4.30;;
44925;SDS011;30662;51.210;7.656;2024-01-15T11:44:37;4.65;;;4.13;;
44925;SDS011;30662;51.210;7.656;2024-01-15T11:47:06;5.45;;;4.40;;
44925;SDS011;30662;51.210;7.656;2024-01-15T11:49:45;4.50;;;4.10;;
44925;SDS011;30662;51.210;7.656;2024-01-15T11:52:26;7.43;;;4.80;;
44925;SDS011;30662;51.210;7.656;2024-01-15T11:55:00;8.55;;;5.57;;
44925;SDS011;30662;51.210;7.656;2024-01-15T11:57:37;9.40;;;4.65;;
44925;SDS011;30662;51.210;7.656;2024-01-15T12:00:08;9.25;;;4.22;;
44925;SDS011;30662;51.210;7.656;2024-01-15T12:02:37;8.13;;;5.43;;
44925;SDS011;30662;51.210;7.656;2024-01-15T12:05:05;9.10;;;5.32;;
44925;SDS011;30662;51.210;7.656;2024-01-15T12:07:32;10.95;;;5.78;;
44925;SDS011;30662;51.210;7.656;2024-01-15T12:09:59;8.25;;;5.15;;
44925;SDS011;30662;51.210;7.656;2024-01-15T12:12:28;10.73;;;5.07;;
44925;SDS011;30662;51.210;7.656;2024-01-15T12:15:02;6.90;;;4.35;;
44925;SDS011;30662;51.210;7.656;2024-01-15T12:17:30;7.45;;;4.30;;
44925;SDS011;30662;51.210;7.656;2024-01-15T12:20:02;8.18;;;4.03;;
44925;SDS011;30662;51.210;7.656;2024-01-15T12:22:29;7.00;;;3.83;;
44925;SDS011;30662;51.210;7.656;2024-01-15T12:25:18;7.20;;;4.00;;
44925;SDS011;30662;51.210;7.656;2024-01-15T12:27:45;8.57;;;3.88;;
44925;SDS011;30662;51.210;7.656;2024-01-15T12:30:13;4.18;;;3.13;;
44925;SDS011;30662;51.210;7.656;2024-01-15T12:32:40;8.10;;;3.55;;
44925;SDS011;30662;51.210;7.656;2024-01-15T12:35:09;6.25;;;3.95;;
44925;SDS011;30662;51.210;7.656;2024-01-15T12:37:36;5.57;;;3.72;;
44925;SDS011;30662;51.210;7.656;2024-01-15T12:40:04;6.25;;;3.88;;
44925;SDS011;30662;51.210;7.656;2024-01-15T12:42:31;9.35;;;3.45;;
44925;SDS011;30662;51.210;7.656;2024-01-15T12:44:58;6.35;;;3.47;;
44925;SDS011;30662;51.210;7.656;2024-01-15T12:47:26;5.03;;;3.55;;
44925;SDS011;30662;51.210;7.656;2024-01-15T12:49:53;6.03;;;4.22;;
44925;SDS011;30662;51.210;7.656;2024-01-15T12:52:29;5.57;;;4.00;;
44925;SDS011;30662;51.210;7.656;2024-01-15T12:55:00;12.88;;;7.32;;
44925;SDS011;30662;51.210;7.656;2024-01-15T12:57:27;5.30;;;4.25;;
44925;SDS011;30662;51.210;7.656;2024-01-15T12:59:54;3.55;;;3.22;;
44925;SDS011;30662;51.210;7.656;2024-01-15T13:02:21;5.97;;;3.20;;
44925;SDS011;30662;51.210;7.656;2024-01-15T13:04:48;7.72;;;3.47;;
44925;SDS011;30662;51.210;7.656;2024-01-15T13:07:16;4.18;;;3.45;;
44925;SDS011;30662;51.210;7.656;2024-01-15T13:09:44;8.55;;;4.18;;
44925;SDS011;30662;51.210;7.656;2024-01-15T13:12:11;6.95;;;4.63;;
44925;SDS011;30662;51.210;7.656;2024-01-15T13:14:38;4.43;;;3.92;;
44925;SDS011;30662;51.210;7.656;2024-01-15T13:17:05;7.40;;;4.40;;
44925;SDS011;30662;51.210;7.656;2024-01-15T13:19:31;8.75;;;4.22;;
44925;SDS011;30662;51.210;7.656;2024-01-15T13:21:59;8.70;;;4.43;;
44925;SDS011;30662;51.210;7.656;2024-01-15T13:24:26;8.55;;;4.60;;
44925;SDS011;30662;51.210;7.656;2024-01-15T13:26:54;9.13;;;5.70;;
44925;SDS011;30662;51.210;7.656;2024-01-15T13:29:21;12.70;;;5.28;;
44925;SDS011;30662;51.210;7.656;2024-01-15T13:31:48;7.65;;;5.28;;
44925;SDS011;30662;51.210;7.656;2024-01-15T13:34:14;9.10;;;4.60;;
44925;SDS011;30662;51.210;7.656;2024-01-15T13:36:41;6.50;;;4.40;;
44925;SDS011;30662;51.210;7.656;2024-01-15T13:39:08;11.43;;;5.07;;
44925;SDS011;30662;51.210;7.656;2024-01-15T13:41:35;10.18;;;4.60;;
44925;SDS011;30662;51.210;7.656;2024-01-15T13:44:04;7.00;;;5.40;;
44925;SDS011;30662;51.210;7.656;2024-01-15T13:46:31;9.00;;;3.78;;
44925;SDS011;30662;51.210;7.656;2024-01-15T13:48:58;8.18;;;4.80;;
44925;SDS011;30662;51.210;7.656;2024-01-15T13:51:26;9.82;;;3.85;;
44925;SDS011;30662;51.210;7.656;2024-01-15T13:53:53;7.07;;;4.60;;
44925;SDS011;30662;51.210;7.656;2024-01-15T13:56:20;11.07;;;4.82;;
44925;SDS011;30662;51.210;7.656;2024-01-15T13:58:47;10.82;;;4.32;;
44925;SDS011;30662;51.210;7.656;2024-01-15T14:01:15;7.43;;;5.03;;
44925;SDS011;30662;51.210;7.656;2024-01-15T14:03:42;8.45;;;4.63;;
44925;SDS011;30662;51.210;7.656;2024-01-15T14:06:10;9.80;;;5.53;;
44925;SDS011;30662;51.210;7.656;2024-01-15T14:08:37;7.20;;;5.30;;
44925;SDS011;30662;51.210;7.656;2024-01-15T14:11:03;13.88;;;5.95;;
44925;SDS011;30662;51.210;7.656;2024-01-15T14:13:30;10.82;;;5.00;;
44925;SDS011;30662;51.210;7.656;2024-01-15T14:15:57;8.23;;;5.18;;
44925;SDS011;30662;51.210;7.656;2024-01-15T14:18:25;6.97;;;5.15;;
44925;SDS011;30662;51.210;7.656;2024-01-15T14:20:54;11.48;;;5.75;;
44925;SDS011;30662;51.210;7.656;2024-01-15T14:23:21;10.18;;;6.78;;
44925;SDS011;30662;51.210;7.656;2024-01-15T14:25:48;14.98;;;9.80;;
44925;SDS011;30662;51.210;7.656;2024-01-15T14:28:15;10.60;;;5.88;;
44925;SDS011;30662;51.210;7.656;2024-01-15T14:30:42;10.52;;;6.38;;
44925;SDS011;30662;51.210;7.656;2024-01-15T14:33:09;7.85;;;5.50;;
44925;SDS011;30662;51.210;7.656;2024-01-15T14:35:37;10.57;;;7.07;;
44925;SDS011;30662;51.210;7.656;2024-01-15T14:38:04;8.13;;;6.45;;
44925;SDS011;30662;51.210;7.656;2024-01-15T14:40:31;12.23;;;8.35;;